sensor_id;sensor_type;location;lat;lon;timestamp;pressure;altitude;pressure_sealevel;temperature;humidity
20624;BME280;10471;42.736;23.346;2023-06-14T00:00:46;95220.69;;;17.08;100.00
20624;BME280;10471;42.736;23.346;2023-06-14T00:03:14;95215.53;;;17.11;100.00
20624;BME280;10471;42.736;23.346;2023-06-14T00:05:42;95217.53;;;17.14;100.00
20624;BME280;10471;42.736;23.346;2023-06-14T00:08:09;95220.66;;;17.16;100.00
20624;BME280;10471;42.736;23.346;2023-06-14T00:10:35;95219.56;;;17.17;100.00
20624;BME280;10471;42.736;23.346;2023-06-14T00:13:04;95212.03;;;17.19;100.00
20624;BME280;10471;42.736;23.346;2023-06-14T00:15:31;95212.50;;;17.21;100.00
20624;BME280;10471;42.736;23.346;2023-06-14T00:17:57;95209.84;;;17.21;100.00
20624;BME280;10471;42.736;23.346;2023-06-14T00:20:26;95215.16;;;17.21;100.00
20624;BME280;10471;42.736;23.346;2023-06-14T00:22:52;95209.06;;;17.21;100.00
20624;BME280;10471;42.736;23.346;2023-06-14T00:25:19;95210.94;;;17.20;100.00
20624;BME280;10471;42.736;23.346;2023-06-14T00:27:44;95206.59;;;17.16;100.00
20624;BME280;10471;42.736;23.346;2023-06-14T00:30:10;95216.16;;;17.08;100.00
20624;BME280;10471;42.736;23.346;2023-06-14T00:32:36;95200.81;;;17.06;100.00
20624;BME280;10471;42.736;23.346;2023-06-14T00:35:01;95202.56;;;17.02;100.00
20624;BME280;10471;42.736;23.346;2023-06-14T00:37:27;95202.09;;;17.00;100.00
20624;BME280;10471;42.736;23.346;2023-06-14T00:39:52;95202.25;;;16.95;100.00
20624;BME280;10471;42.736;23.346;2023-06-14T00:42:24;95201.81;;;16.93;100.00
20624;BME280;10471;42.736;23.346;2023-06-14T00:44:50;95204.00;;;16.91;100.00
20624;BME280;10471;42.736;23.346;2023-06-14T00:47:15;95199.31;;;16.88;100.00
20624;BME280;10471;42.736;23.346;2023-06-14T00:49:41;95196.19;;;16.86;100.00
20624;BME280;10471;42.736;23.346;2023-06-14T00:52:07;95193.53;;;16.86;100.00
20624;BME280;10471;42.736;23.346;2023-06-14T00:54:32;95202.28;;;16.86;100.00
20624;BME280;10471;42.736;23.346;2023-06-14T00:56:58;95204.78;;;16.83;100.00
20624;BME280;10471;42.736;23.346;2023-06-14T00:59:23;95188.88;;;16.74;100.00
20624;BME280;10471;42.736;23.346;2023-06-14T01:01:49;95184.63;;;16.82;100.00
20624;BME280;10471;42.736;23.346;2023-06-14T01:04:14;95189.47;;;16.80;100.00
20624;BME280;10471;42.736;23.346;2023-06-14T01:06:51;95182.41;;;16.84;100.00
20624;BME280;10471;42.736;23.346;2023-06-14T01:09:27;95196.81;;;16.83;100.00
20624;BME280;10471;42.736;23.346;2023-06-14T01:12:04;95189.00;;;16.78;100.00
20624;BME280;10471;42.736;23.346;2023-06-14T01:14:34;95184.16;;;16.80;100.00
20624;BME280;10471;42.736;23.346;2023-06-14T01:17:00;95193.06;;;16.84;100.00
20624;BME280;10471;42.736;23.346;2023-06-14T01:19:27;95190.72;;;16.82;100.00
20624;BME280;10471;42.736;23.346;2023-06-14T01:21:55;95194.00;;;16.88;100.00
20624;BME280;10471;42.736;23.346;2023-06-14T01:24:20;95191.47;;;16.91;100.00
20624;BME280;10471;42.736;23.346;2023-06-14T01:26:52;95198.38;;;16.84;100.00
20624;BME280;10471;42.736;23.346;2023-06-14T01:29:22;95195.53;;;16.89;100.00
20624;BME280;10471;42.736;23.346;2023-06-14T01:31:48;95188.94;;;16.95;100.00
20624;BME280;10471;42.736;23.346;2023-06-14T01:34:15;95193.66;;;16.98;100.00
20624;BME280;10471;42.736;23.346;2023-06-14T01:36:41;95197.56;;;17.00;100.00
20624;BME280;10471;42.736;23.346;2023-06-14T01:39:09;95192.34;;;17.04;100.00
20624;BME280;10471;42.736;23.346;2023-06-14T01:41:37;95195.50;;;17.06;100.00
20624;BME280;10471;42.736;23.346;2023-06-14T01:44:04;95190.16;;;17.06;100.00
20624;BME280;10471;42.736;23.346;2023-06-14T01:46:30;95188.59;;;17.05;100.00
20624;BME280;10471;42.736;23.346;2023-06-14T01:48:55;95188.03;;;16.91;100.00
20624;BME280;10471;42.736;23.346;2023-06-14T01:51:20;95196.22;;;16.69;100.00
20624;BME280;10471;42.736;23.346;2023-06-14T01:53:46;95189.81;;;16.61;100.00
20624;BME280;10471;42.736;23.346;2023-06-14T01:56:12;95193.13;;;16.67;100.00
20624;BME280;10471;42.736;23.346;2023-06-14T01:58:37;95188.56;;;16.67;100.00
20624;BME280;10471;42.736;23.346;2023-06-14T02:01:04;95198.91;;;16.60;100.00
20624;BME280;10471;42.736;23.346;2023-06-14T02:03:30;95200.97;;;16.46;100.00
20624;BME280;10471;42.736;23.346;2023-06-14T02:05:55;95206.78;;;16.48;100.00
20624;BME280;10471;42.736;23.346;2023-06-14T02:08:21;95204.72;;;16.54;100.00
20624;BME280;10471;42.736;23.346;2023-06-14T02:10:47;95205.03;;;16.44;100.00
20624;BME280;10471;42.736;23.346;2023-06-14T02:13:13;95212.25;;;16.35;100.00
20624;BME280;10471;42.736;23.346;2023-06-14T02:15:38;95212.88;;;16.32;100.00
20624;BME280;10471;42.736;23.346;2023-06-14T02:18:04;95214.91;;;16.27;100.00
20624;BME280;10471;42.736;23.346;2023-06-14T02:20:30;95218.47;;;16.22;100.00
20624;BME280;10471;42.736;23.346;2023-06-14T02:22:56;95220.81;;;16.24;100.00
20624;BME280;10471;42.736;23.346;2023-06-14T02:25:22;95217.25;;;16.28;100.00
20624;BME280;10471;42.736;23.346;2023-06-14T02:27:47;95216.78;;;16.35;100.00
20624;BME280;10471;42.736;23.346;2023-06-14T02:30:13;95224.91;;;16.30;100.00
20624;BME280;10471;42.736;23.346;2023-06-14T02:32:38;95220.41;;;16.30;100.00
20624;BME280;10471;42.736;23.346;2023-06-14T02:35:06;95225.41;;;16.40;100.00
20624;BME280;10471;42.736;23.346;2023-06-14T02:37:31;95225.56;;;16.43;100.00
20624;BME280;10471;42.736;23.346;2023-06-14T02:39:57;95224.91;;;16.46;100.00
20624;BME280;10471;42.736;23.346;2023-06-14T02:42:22;95221.31;;;16.51;100.00
20624;BME280;10471;42.736;23.346;2023-06-14T02:44:47;95217.25;;;16.45;100.00
20624;BME280;10471;42.736;23.346;2023-06-14T02:47:17;95227.09;;;16.44;100.00
20624;BME280;10471;42.736;23.346;2023-06-14T02:49:43;95224.31;;;16.33;100.00
20624;BME280;10471;42.736;23.346;2023-06-14T02:52:08;95214.75;;;16.40;100.00
20624;BME280;10471;42.736;23.346;2023-06-14T02:54:34;95212.84;;;16.49;100.00
20624;BME280;10471;42.736;23.346;2023-06-14T02:56:59;95214.59;;;16.53;100.00
20624;BME280;10471;42.736;23.346;2023-06-14T02:59:25;95220.03;;;16.57;100.00
20624;BME280;10471;42.736;23.346;2023-06-14T03:01:51;95227.41;;;16.60;100.00
20624;BME280;10471;42.736;23.346;2023-06-14T03:04:17;95225.19;;;16.62;100.00
20624;BME280;10471;42.736;23.346;2023-06-14T03:06:42;95228.31;;;16.64;100.00
20624;BME280;10471;42.736;23.346;2023-06-14T03:09:09;95237.88;;;16.65;100.00
20624;BME280;10471;42.736;23.346;2023-06-14T03:11:34;95227.25;;;16.65;100.00
20624;BME280;10471;42.736;23.346;2023-06-14T03:14:01;95241.63;;;16.64;100.00
20624;BME280;10471;42.736;23.346;2023-06-14T03:16:28;95242.72;;;16.63;100.00
20624;BME280;10471;42.736;23.346;2023-06-14T03:18:55;95240.72;;;16.60;100.00
20624;BME280;10471;42.736;23.346;2023-06-14T03:21:20;95245.22;;;16.59;100.00
20624;BME280;10471;42.736;23.346;2023-06-14T03:23:47;95248.22;;;16.58;100.00
20624;BME280;10471;42.736;23.346;2023-06-14T03:26:13;95252.59;;;16.54;100.00
20624;BME280;10471;42.736;23.346;2023-06-14T03:28:39;95248.53;;;16.48;100.00
20624;BME280;10471;42.736;23.346;2023-06-14T03:31:05;95250.91;;;16.41;100.00
20624;BME280;10471;42.736;23.346;2023-06-14T03:33:30;95249.19;;;16.45;100.00
20624;BME280;10471;42.736;23.346;2023-06-14T03:35:56;95245.28;;;16.42;100.00
20624;BME280;10471;42.736;23.346;2023-06-14T03:38:21;95245.72;;;16.36;100.00
20624;BME280;10471;42.736;23.346;2023-06-14T03:40:47;95239.47;;;16.32;100.00
20624;BME280;10471;42.736;23.346;2023-06-14T03:43:12;95246.97;;;16.39;100.00
20624;BME280;10471;42.736;23.346;2023-06-14T03:45:38;95249.63;;;16.47;100.00
20624;BME280;10471;42.736;23.346;2023-06-14T03:48:03;95250.88;;;16.58;100.00
20624;BME280;10471;42.736;23.346;2023-06-14T03:50:31;95249.00;;;16.67;100.00
20624;BME280;10471;42.736;23.346;2023-06-14T03:52:57;95243.34;;;16.77;100.00
20624;BME280;10471;42.736;23.346;2023-06-14T03:55:22;95246.44;;;16.87;100.00
20624;BME280;10471;42.736;23.346;2023-06-14T03:57:51;95245.19;;;16.93;100.00
20624;BME280;10471;42.736;23.346;2023-06-14T04:00:16;95249.56;;;16.98;100.00
20624;BME280;10471;42.736;23.346;2023-06-14T04:02:43;95249.84;;;17.05;100.00
20624;BME280;10471;42.736;23.346;2023-06-14T04:05:09;95249.22;;;17.08;100.00
20624;BME280;10471;42.736;23.346;2023-06-14T04:07:35;95252.16;;;17.14;100.00
20624;BME280;10471;42.736;23.346;2023-06-14T04:10:08;95251.38;;;17.14;100.00
20624;BME280;10471;42.736;23.346;2023-06-14T04:12:34;95255.31;;;17.16;100.00
20624;BME280;10471;42.736;23.346;2023-06-14T04:14:59;95247.63;;;17.15;100.00
20624;BME280;10471;42.736;23.346;2023-06-14T04:17:26;95245.56;;;17.20;100.00
20624;BME280;10471;42.736;23.346;2023-06-14T04:19:51;95250.91;;;17.29;100.00
20624;BME280;10471;42.736;23.346;2023-06-14T04:22:16;95253.84;;;17.36;100.00
20624;BME280;10471;42.736;23.346;2023-06-14T04:24:42;95252.59;;;17.42;100.00
20624;BME280;10471;42.736;23.346;2023-06-14T04:27:07;95267.25;;;17.48;100.00
20624;BME280;10471;42.736;23.346;2023-06-14T04:29:33;95261.13;;;17.56;100.00
20624;BME280;10471;42.736;23.346;2023-06-14T04:31:58;95257.03;;;17.58;100.00
20624;BME280;10471;42.736;23.346;2023-06-14T04:34:25;95268.44;;;17.67;100.00
20624;BME280;10471;42.736;23.346;2023-06-14T04:36:55;95261.63;;;17.78;100.00
20624;BME280;10471;42.736;23.346;2023-06-14T04:39:21;95268.81;;;17.86;100.00
20624;BME280;10471;42.736;23.346;2023-06-14T04:41:47;95258.41;;;17.93;100.00
20624;BME280;10471;42.736;23.346;2023-06-14T04:44:13;95254.13;;;18.00;100.00
20624;BME280;10471;42.736;23.346;2023-06-14T04:46:39;95258.97;;;18.07;100.00
20624;BME280;10471;42.736;23.346;2023-06-14T04:49:14;95266.03;;;18.03;100.00
20624;BME280;10471;42.736;23.346;2023-06-14T04:51:49;95266.13;;;18.15;100.00
20624;BME280;10471;42.736;23.346;2023-06-14T04:54:23;95266.78;;;18.12;100.00
20624;BME280;10471;42.736;23.346;2023-06-14T04:56:50;95279.56;;;18.27;100.00
20624;BME280;10471;42.736;23.346;2023-06-14T04:59:15;95271.38;;;18.32;100.00
20624;BME280;10471;42.736;23.346;2023-06-14T05:01:42;95269.28;;;18.37;100.00
20624;BME280;10471;42.736;23.346;2023-06-14T05:04:13;95279.44;;;18.43;100.00
20624;BME280;10471;42.736;23.346;2023-06-14T05:06:38;95283.41;;;18.58;100.00
20624;BME280;10471;42.736;23.346;2023-06-14T05:09:03;95285.16;;;18.74;100.00
20624;BME280;10471;42.736;23.346;2023-06-14T05:11:29;95293.88;;;18.83;100.00
20624;BME280;10471;42.736;23.346;2023-06-14T05:13:54;95302.13;;;18.90;100.00
20624;BME280;10471;42.736;23.346;2023-06-14T05:16:20;95291.25;;;18.95;100.00
20624;BME280;10471;42.736;23.346;2023-06-14T05:18:48;95292.38;;;19.06;100.00
20624;BME280;10471;42.736;23.346;2023-06-14T05:21:14;95285.13;;;19.15;100.00
20624;BME280;10471;42.736;23.346;2023-06-14T05:23:43;95293.03;;;19.23;100.00
20624;BME280;10471;42.736;23.346;2023-06-14T05:26:09;95303.84;;;19.27;100.00
20624;BME280;10471;42.736;23.346;2023-06-14T05:28:35;95311.41;;;19.25;100.00
20624;BME280;10471;42.736;23.346;2023-06-14T05:31:00;95314.31;;;19.20;100.00
20624;BME280;10471;42.736;23.346;2023-06-14T05:33:26;95316.38;;;19.14;100.00
20624;BME280;10471;42.736;23.346;2023-06-14T05:35:51;95321.09;;;19.29;100.00
20624;BME280;10471;42.736;23.346;2023-06-14T05:38:17;95322.06;;;19.13;100.00
20624;BME280;10471;42.736;23.346;2023-06-14T05:40:42;95319.88;;;19.27;100.00
20624;BME280;10471;42.736;23.346;2023-06-14T05:43:07;95324.09;;;19.28;100.00
20624;BME280;10471;42.736;23.346;2023-06-14T05:45:33;95328.69;;;19.39;100.00
20624;BME280;10471;42.736;23.346;2023-06-14T05:47:58;95324.59;;;19.42;100.00
20624;BME280;10471;42.736;23.346;2023-06-14T05:50:24;95322.16;;;19.49;100.00
20624;BME280;10471;42.736;23.346;2023-06-14T05:52:49;95326.94;;;19.55;100.00
20624;BME280;10471;42.736;23.346;2023-06-14T05:55:16;95332.00;;;19.69;100.00
20624;BME280;10471;42.736;23.346;2023-06-14T05:57:41;95323.75;;;19.85;100.00
20624;BME280;10471;42.736;23.346;2023-06-14T06:00:07;95327.59;;;19.96;100.00
20624;BME280;10471;42.736;23.346;2023-06-14T06:02:36;95331.81;;;20.09;100.00
20624;BME280;10471;42.736;23.346;2023-06-14T06:05:02;95334.38;;;20.18;100.00
20624;BME280;10471;42.736;23.346;2023-06-14T06:07:27;95338.06;;;20.25;100.00
20624;BME280;10471;42.736;23.346;2023-06-14T06:09:53;95340.75;;;20.01;100.00
20624;BME280;10471;42.736;23.346;2023-06-14T06:12:18;95344.19;;;19.90;100.00
20624;BME280;10471;42.736;23.346;2023-06-14T06:14:44;95337.03;;;19.82;100.00
20624;BME280;10471;42.736;23.346;2023-06-14T06:17:09;95337.81;;;19.82;100.00
20624;BME280;10471;42.736;23.346;2023-06-14T06:19:35;95340.91;;;19.61;100.00
20624;BME280;10471;42.736;23.346;2023-06-14T06:22:02;95338.19;;;19.49;100.00
20624;BME280;10471;42.736;23.346;2023-06-14T06:24:27;95346.91;;;19.58;100.00
20624;BME280;10471;42.736;23.346;2023-06-14T06:26:52;95334.75;;;19.60;100.00
20624;BME280;10471;42.736;23.346;2023-06-14T06:29:18;95343.50;;;19.25;100.00
20624;BME280;10471;42.736;23.346;2023-06-14T06:31:43;95344.56;;;19.44;100.00
20624;BME280;10471;42.736;23.346;2023-06-14T06:34:10;95353.22;;;19.41;100.00
20624;BME280;10471;42.736;23.346;2023-06-14T06:36:35;95351.78;;;19.44;100.00
20624;BME280;10471;42.736;23.346;2023-06-14T06:39:02;95344.78;;;19.51;100.00
20624;BME280;10471;42.736;23.346;2023-06-14T06:41:34;95349.94;;;19.68;100.00
20624;BME280;10471;42.736;23.346;2023-06-14T06:44:01;95348.63;;;19.86;100.00
20624;BME280;10471;42.736;23.346;2023-06-14T06:46:27;95348.13;;;19.92;100.00
20624;BME280;10471;42.736;23.346;2023-06-14T06:48:52;95350.78;;;20.04;100.00
20624;BME280;10471;42.736;23.346;2023-06-14T06:51:17;95355.91;;;20.21;100.00
20624;BME280;10471;42.736;23.346;2023-06-14T06:53:43;95353.47;;;20.40;100.00
20624;BME280;10471;42.736;23.346;2023-06-14T06:56:09;95360.59;;;20.48;100.00
20624;BME280;10471;42.736;23.346;2023-06-14T06:58:34;95359.00;;;20.71;100.00
20624;BME280;10471;42.736;23.346;2023-06-14T07:00:59;95361.09;;;20.65;100.00
20624;BME280;10471;42.736;23.346;2023-06-14T07:03:25;95358.78;;;20.64;100.00
20624;BME280;10471;42.736;23.346;2023-06-14T07:05:51;95353.31;;;20.60;100.00
20624;BME280;10471;42.736;23.346;2023-06-14T07:08:17;95359.00;;;20.47;100.00
20624;BME280;10471;42.736;23.346;2023-06-14T07:10:42;95362.78;;;20.70;100.00
20624;BME280;10471;42.736;23.346;2023-06-14T07:13:07;95357.09;;;20.83;100.00
20624;BME280;10471;42.736;23.346;2023-06-14T07:15:33;95364.81;;;21.12;100.00
20624;BME280;10471;42.736;23.346;2023-06-14T07:17:58;95357.91;;;21.38;100.00
20624;BME280;10471;42.736;23.346;2023-06-14T07:20:25;95361.00;;;21.68;100.00
20624;BME280;10471;42.736;23.346;2023-06-14T07:22:50;95353.81;;;21.87;100.00
20624;BME280;10471;42.736;23.346;2023-06-14T07:25:16;95360.06;;;22.06;100.00
20624;BME280;10471;42.736;23.346;2023-06-14T07:27:46;95353.81;;;22.18;100.00
20624;BME280;10471;42.736;23.346;2023-06-14T07:30:12;95348.97;;;22.39;100.00
20624;BME280;10471;42.736;23.346;2023-06-14T07:32:37;95351.16;;;22.33;100.00
20624;BME280;10471;42.736;23.346;2023-06-14T07:35:03;95348.28;;;22.42;100.00
20624;BME280;10471;42.736;23.346;2023-06-14T07:37:29;95348.38;;;22.45;100.00
20624;BME280;10471;42.736;23.346;2023-06-14T07:39:54;95353.03;;;22.48;100.00
20624;BME280;10471;42.736;23.346;2023-06-14T07:42:19;95353.75;;;22.45;100.00
20624;BME280;10471;42.736;23.346;2023-06-14T07:44:45;95354.28;;;22.69;100.00
20624;BME280;10471;42.736;23.346;2023-06-14T07:47:10;95352.03;;;22.71;100.00
20624;BME280;10471;42.736;23.346;2023-06-14T07:49:36;95359.31;;;23.05;100.00
20624;BME280;10471;42.736;23.346;2023-06-14T07:52:01;95354.03;;;23.27;100.00
20624;BME280;10471;42.736;23.346;2023-06-14T07:54:26;95361.56;;;23.60;100.00
20624;BME280;10471;42.736;23.346;2023-06-14T07:56:55;95366.53;;;23.77;100.00
20624;BME280;10471;42.736;23.346;2023-06-14T07:59:21;95368.97;;;23.66;100.00
20624;BME280;10471;42.736;23.346;2023-06-14T08:01:46;95373.06;;;23.38;100.00
20624;BME280;10471;42.736;23.346;2023-06-14T08:04:14;95365.25;;;23.52;100.00
20624;BME280;10471;42.736;23.346;2023-06-14T08:06:39;95367.78;;;23.82;100.00
20624;BME280;10471;42.736;23.346;2023-06-14T08:09:05;95378.97;;;24.07;100.00
20624;BME280;10471;42.736;23.346;2023-06-14T08:11:30;95382.50;;;24.33;100.00
20624;BME280;10471;42.736;23.346;2023-06-14T08:13:56;95384.69;;;24.47;100.00
20624;BME280;10471;42.736;23.346;2023-06-14T08:16:22;95385.66;;;24.61;99.73
20624;BME280;10471;42.736;23.346;2023-06-14T08:18:47;95395.56;;;24.53;100.00
20624;BME280;10471;42.736;23.346;2023-06-14T08:21:12;95394.75;;;24.75;100.00
20624;BME280;10471;42.736;23.346;2023-06-14T08:23:40;95384.75;;;24.50;100.00
20624;BME280;10471;42.736;23.346;2023-06-14T08:26:05;95387.84;;;24.07;100.00
20624;BME280;10471;42.736;23.346;2023-06-14T08:28:31;95377.69;;;23.97;100.00
20624;BME280;10471;42.736;23.346;2023-06-14T08:30:56;95384.66;;;23.79;100.00
20624;BME280;10471;42.736;23.346;2023-06-14T08:33:22;95393.03;;;23.56;100.00
20624;BME280;10471;42.736;23.346;2023-06-14T08:35:47;95383.81;;;23.57;100.00
20624;BME280;10471;42.736;23.346;2023-06-14T08:38:13;95390.75;;;23.39;100.00
20624;BME280;10471;42.736;23.346;2023-06-14T08:40:39;95385.66;;;23.34;100.00
20624;BME280;10471;42.736;23.346;2023-06-14T08:43:06;95381.69;;;23.28;100.00
20624;BME280;10471;42.736;23.346;2023-06-14T08:45:31;95372.66;;;23.36;100.00
20624;BME280;10471;42.736;23.346;2023-06-14T08:47:57;95379.56;;;23.37;100.00
20624;BME280;10471;42.736;23.346;2023-06-14T08:50:27;95375.47;;;23.24;100.00
20624;BME280;10471;42.736;23.346;2023-06-14T08:52:57;95367.81;;;23.07;100.00
20624;BME280;10471;42.736;23.346;2023-06-14T08:55:26;95368.53;;;23.23;100.00
20624;BME280;10471;42.736;23.346;2023-06-14T08:57:54;95368.75;;;23.33;100.00
20624;BME280;10471;42.736;23.346;2023-06-14T09:00:20;95373.38;;;23.55;100.00
20624;BME280;10471;42.736;23.346;2023-06-14T09:02:46;95371.41;;;23.52;100.00
20624;BME280;10471;42.736;23.346;2023-06-14T09:05:12;95370.34;;;23.38;100.00
20624;BME280;10471;42.736;23.346;2023-06-14T09:07:41;95365.44;;;23.62;100.00
20624;BME280;10471;42.736;23.346;2023-06-14T09:10:14;95368.56;;;23.64;100.00
20624;BME280;10471;42.736;23.346;2023-06-14T09:12:40;95374.81;;;23.68;100.00
20624;BME280;10471;42.736;23.346;2023-06-14T09:15:06;95369.94;;;23.55;100.00
20624;BME280;10471;42.736;23.346;2023-06-14T09:17:37;95360.66;;;23.52;100.00
20624;BME280;10471;42.736;23.346;2023-06-14T09:20:04;95354.34;;;23.45;100.00
20624;BME280;10471;42.736;23.346;2023-06-14T09:22:42;95356.47;;;23.55;100.00
20624;BME280;10471;42.736;23.346;2023-06-14T09:25:08;95358.84;;;23.78;97.65
20624;BME280;10471;42.736;23.346;2023-06-14T09:27:33;95356.97;;;24.01;99.17
20624;BME280;10471;42.736;23.346;2023-06-14T09:30:01;95362.22;;;24.17;98.28
20624;BME280;10471;42.736;23.346;2023-06-14T09:32:27;95363.53;;;24.26;99.12
20624;BME280;10471;42.736;23.346;2023-06-14T09:34:52;95356.09;;;24.42;100.00
20624;BME280;10471;42.736;23.346;2023-06-14T09:37:31;95363.47;;;24.71;92.27
20624;BME280;10471;42.736;23.346;2023-06-14T09:39:57;95356.84;;;24.91;92.93
20624;BME280;10471;42.736;23.346;2023-06-14T09:42:23;95356.59;;;25.03;86.07
20624;BME280;10471;42.736;23.346;2023-06-14T09:44:51;95361.78;;;25.14;89.37
20624;BME280;10471;42.736;23.346;2023-06-14T09:47:18;95359.31;;;25.32;89.98
20624;BME280;10471;42.736;23.346;2023-06-14T09:49:44;95346.84;;;25.53;89.43
20624;BME280;10471;42.736;23.346;2023-06-14T09:52:17;95345.41;;;25.66;87.32
20624;BME280;10471;42.736;23.346;2023-06-14T09:54:44;95341.81;;;25.88;85.53
20624;BME280;10471;42.736;23.346;2023-06-14T09:57:16;95342.09;;;26.16;86.02
20624;BME280;10471;42.736;23.346;2023-06-14T09:59:43;95341.81;;;26.31;71.44
20624;BME280;10471;42.736;23.346;2023-06-14T10:02:14;95338.28;;;26.24;69.85
20624;BME280;10471;42.736;23.346;2023-06-14T10:04:46;95332.56;;;25.89;73.65
20624;BME280;10471;42.736;23.346;2023-06-14T10:07:19;95340.44;;;25.35;80.35
20624;BME280;10471;42.736;23.346;2023-06-14T10:09:46;95335.72;;;25.25;77.40
20624;BME280;10471;42.736;23.346;2023-06-14T10:12:16;95326.97;;;25.35;83.71
20624;BME280;10471;42.736;23.346;2023-06-14T10:14:49;95320.72;;;25.64;85.70
20624;BME280;10471;42.736;23.346;2023-06-14T10:17:31;95314.09;;;25.94;83.88
20624;BME280;10471;42.736;23.346;2023-06-14T10:20:48;95321.41;;;25.94;71.63
20624;BME280;10471;42.736;23.346;2023-06-14T10:23:14;95310.13;;;25.82;78.22
20624;BME280;10471;42.736;23.346;2023-06-14T10:25:42;95311.03;;;25.99;81.43
20624;BME280;10471;42.736;23.346;2023-06-14T10:30:39;95311.66;;;26.26;78.57
20624;BME280;10471;42.736;23.346;2023-06-14T10:33:07;95310.31;;;26.06;74.02
20624;BME280;10471;42.736;23.346;2023-06-14T10:35:34;95309.53;;;26.05;74.75
20624;BME280;10471;42.736;23.346;2023-06-14T10:38:09;95306.53;;;26.14;70.47
20624;BME280;10471;42.736;23.346;2023-06-14T10:40:36;95306.06;;;26.51;70.85
20624;BME280;10471;42.736;23.346;2023-06-14T10:43:21;95300.56;;;26.98;69.97
20624;BME280;10471;42.736;23.346;2023-06-14T10:46:13;95298.75;;;27.37;72.74
20624;BME280;10471;42.736;23.346;2023-06-14T10:48:43;95290.75;;;27.65;68.27
20624;BME280;10471;42.736;23.346;2023-06-14T10:51:19;95298.13;;;28.09;65.74
20624;BME280;10471;42.736;23.346;2023-06-14T10:53:48;95289.66;;;28.25;63.41
20624;BME280;10471;42.736;23.346;2023-06-14T10:56:27;95290.41;;;28.25;60.24
20624;BME280;10471;42.736;23.346;2023-06-14T10:58:54;95284.97;;;28.46;60.19
20624;BME280;10471;42.736;23.346;2023-06-14T11:04:17;95279.41;;;29.12;59.45
20624;BME280;10471;42.736;23.346;2023-06-14T11:06:49;95272.38;;;29.21;56.08
20624;BME280;10471;42.736;23.346;2023-06-14T11:11:57;95269.44;;;28.78;56.95
20624;BME280;10471;42.736;23.346;2023-06-14T11:14:24;95266.78;;;28.29;57.01
20624;BME280;10471;42.736;23.346;2023-06-14T11:16:50;95263.69;;;28.20;57.27
20624;BME280;10471;42.736;23.346;2023-06-14T11:19:16;95262.50;;;28.35;60.61
20624;BME280;10471;42.736;23.346;2023-06-14T11:21:42;95257.44;;;28.51;62.26
20624;BME280;10471;42.736;23.346;2023-06-14T11:24:11;95264.78;;;28.68;58.29
20624;BME280;10471;42.736;23.346;2023-06-14T11:26:38;95253.91;;;28.78;55.47
20624;BME280;10471;42.736;23.346;2023-06-14T11:29:03;95247.63;;;29.06;58.96
20624;BME280;10471;42.736;23.346;2023-06-14T11:31:30;95248.28;;;29.23;61.12
20624;BME280;10471;42.736;23.346;2023-06-14T11:33:56;95249.03;;;29.34;56.15
20624;BME280;10471;42.736;23.346;2023-06-14T11:36:22;95262.09;;;29.60;55.54
20624;BME280;10471;42.736;23.346;2023-06-14T11:38:48;95248.19;;;29.44;52.32
20624;BME280;10471;42.736;23.346;2023-06-14T11:41:14;95251.41;;;29.25;57.70
20624;BME280;10471;42.736;23.346;2023-06-14T11:43:40;95244.38;;;29.31;52.94
20624;BME280;10471;42.736;23.346;2023-06-14T11:46:12;95241.03;;;29.71;55.82
20624;BME280;10471;42.736;23.346;2023-06-14T11:48:43;95240.81;;;30.02;51.40
20624;BME280;10471;42.736;23.346;2023-06-14T11:51:08;95230.78;;;29.96;51.62
20624;BME280;10471;42.736;23.346;2023-06-14T11:53:34;95226.84;;;30.04;49.44
20624;BME280;10471;42.736;23.346;2023-06-14T11:56:01;95220.53;;;30.14;53.21
20624;BME280;10471;42.736;23.346;2023-06-14T11:58:26;95218.72;;;29.97;49.58
20624;BME280;10471;42.736;23.346;2023-06-14T12:00:54;95219.41;;;30.08;52.87
20624;BME280;10471;42.736;23.346;2023-06-14T12:03:26;95213.13;;;30.14;50.53
20624;BME280;10471;42.736;23.346;2023-06-14T12:06:08;95220.00;;;30.26;50.31
20624;BME280;10471;42.736;23.346;2023-06-14T12:08:34;95214.06;;;30.38;50.95
20624;BME280;10471;42.736;23.346;2023-06-14T12:11:06;95203.84;;;30.52;49.28
20624;BME280;10471;42.736;23.346;2023-06-14T12:13:38;95199.25;;;30.46;48.79
20624;BME280;10471;42.736;23.346;2023-06-14T12:16:04;95189.72;;;30.64;46.52
20624;BME280;10471;42.736;23.346;2023-06-14T12:18:37;95195.84;;;30.71;48.13
20624;BME280;10471;42.736;23.346;2023-06-14T12:21:04;95196.41;;;30.89;48.08
20624;BME280;10471;42.736;23.346;2023-06-14T12:23:48;95193.22;;;30.98;46.15
20624;BME280;10471;42.736;23.346;2023-06-14T12:26:18;95182.53;;;31.10;48.29
20624;BME280;10471;42.736;23.346;2023-06-14T12:28:47;95180.84;;;31.49;46.73
20624;BME280;10471;42.736;23.346;2023-06-14T12:31:15;95188.41;;;31.65;45.92
20624;BME280;10471;42.736;23.346;2023-06-14T12:33:42;95185.34;;;31.59;45.17
20624;BME280;10471;42.736;23.346;2023-06-14T12:36:08;95172.44;;;31.63;43.59
20624;BME280;10471;42.736;23.346;2023-06-14T12:38:36;95173.16;;;31.90;44.17
20624;BME280;10471;42.736;23.346;2023-06-14T12:41:02;95172.44;;;32.12;44.58
20624;BME280;10471;42.736;23.346;2023-06-14T12:43:27;95163.19;;;31.80;43.47
20624;BME280;10471;42.736;23.346;2023-06-14T12:45:53;95164.00;;;31.81;45.82
20624;BME280;10471;42.736;23.346;2023-06-14T12:48:19;95165.81;;;32.10;44.22
20624;BME280;10471;42.736;23.346;2023-06-14T12:50:45;95161.97;;;32.07;42.86